W. A. Kernan — WDD4377 — position and weather

sailwx.info

Track history (hours):
 
Tides and Currents Weather Stations Pressure Air Temp Water Temp Dewpoint Dewpoint Depression Visibility Wind Speed Wind Dir Waves Ship Positions

W. A. Kernan

Owner: American Commercial Lines LLC, Jeffersonville, IN. More information available from US FCC via Universal Licensing System and Coast Guard Vessel Documentation Center.

Last reported at 2015-Aug-29 21:28 UTC. Time now 2015-Aug-30 01:40 UTC.
Position N 39°03' W 084°53'.

Length 45 m; draft 2.9 m.

MMSI: 367143920.

Date/timePositionNaut miles runAvg speedWind from/ knotsBaromVisibWave heightAir tempDewpointWater temp
2015-Aug-29 21:28N 39°03' W 084°53'5 4.9
2015-Aug-29 20:25N 39°06' W 084°49'4 5.1
2015-Aug-29 19:33N 39°09' W 084°44'3 3.1
2015-Aug-29 18:33N 39°06' W 084°41'0 0.0
2015-Aug-29 17:33N 39°06' W 084°41'0 0.0
2015-Aug-29 16:33N 39°06' W 084°41'0 0.0
2015-Aug-29 15:32N 39°06' W 084°41'2 2.2
2015-Aug-29 14:33N 39°05' W 084°39'4 4.1
2015-Aug-29 13:33N 39°05' W 084°34'5 4.8
2015-Aug-29 12:33N 39°07' W 084°28'5 4.9
2015-Aug-29 11:33N 39°03' W 084°25'5 5.3
2015-Aug-29 10:33N 39°01' W 084°19'5 5.4
2015-Aug-29 09:33N 38°56' W 084°16'5 5.4
2015-Aug-29 08:33N 38°51' W 084°14'4 3.9
2015-Aug-29 07:30N 38°48' W 084°10'4 3.8
2015-Aug-29 06:33N 38°47' W 084°06'6 5.3
2015-Aug-29 05:30N 38°47' W 083°59'5 5.4
2015-Aug-29 04:31N 38°46' W 083°52'5 5.1
2015-Aug-29 03:32N 38°42' W 083°48'  
2015-Aug-21 15:33N 38°48' W 084°11'5 4.7
2015-Aug-21 14:33N 38°52' W 084°14'5 4.9
2015-Aug-21 13:33N 38°57' W 084°17'1 0.9
2015-Aug-21 12:32N 38°57' W 084°18'0 0.0
2015-Aug-21 11:32N 38°57' W 084°18'0 0.0
2015-Aug-21 10:32N 38°57' W 084°18'0 0.0
2015-Aug-21 09:33N 38°57' W 084°18'5 4.5
2015-Aug-21 08:33N 39°02' W 084°20'5 5.2
2015-Aug-21 07:33N 39°04' W 084°26'4 4.1
2015-Aug-21 06:33N 39°07' W 084°29'4 3.9
2015-Aug-21 05:33N 39°05' W 084°34'2 2.3
2015-Aug-21 04:33N 39°04' W 084°36'5 5.4
2015-Aug-21 03:33N 39°07' W 084°42'4 4.0
2015-Aug-21 02:33N 39°07' W 084°47'6 5.4
2015-Aug-21 01:28N 39°03' W 084°54'7 5.2
2015-Aug-21 00:10N 38°57' W 084°51'  
Track history (hours):
 
Tides and Currents Weather Stations Pressure Air Temp Water Temp Dewpoint Dewpoint Depression Visibility Wind Speed Wind Dir Waves Ship Positions

W. A. Kernan

Owner: American Commercial Lines LLC, Jeffersonville, IN. More information available from US FCC via Universal Licensing System and Coast Guard Vessel Documentation Center.

Last reported at 2015-Aug-29 21:28 UTC. Time now 2015-Aug-30 01:40 UTC.
Position N 39°03' W 084°53'.

Length 45 m; draft 2.9 m.

MMSI: 367143920.

Date/timePositionNaut miles runAvg speedWind from/ knotsBaromVisibWave heightAir tempDewpointWater temp
2015-Aug-29 21:28N 39°03' W 084°53'5 4.9
2015-Aug-29 20:25N 39°06' W 084°49'4 5.1
2015-Aug-29 19:33N 39°09' W 084°44'3 3.1
2015-Aug-29 18:33N 39°06' W 084°41'0 0.0
2015-Aug-29 17:33N 39°06' W 084°41'0 0.0
2015-Aug-29 16:33N 39°06' W 084°41'0 0.0
2015-Aug-29 15:32N 39°06' W 084°41'2 2.2
2015-Aug-29 14:33N 39°05' W 084°39'4 4.1
2015-Aug-29 13:33N 39°05' W 084°34'5 4.8
2015-Aug-29 12:33N 39°07' W 084°28'5 4.9
2015-Aug-29 11:33N 39°03' W 084°25'5 5.3
2015-Aug-29 10:33N 39°01' W 084°19'5 5.4
2015-Aug-29 09:33N 38°56' W 084°16'5 5.4
2015-Aug-29 08:33N 38°51' W 084°14'4 3.9
2015-Aug-29 07:30N 38°48' W 084°10'4 3.8
2015-Aug-29 06:33N 38°47' W 084°06'6 5.3
2015-Aug-29 05:30N 38°47' W 083°59'5 5.4
2015-Aug-29 04:31N 38°46' W 083°52'5 5.1
2015-Aug-29 03:32N 38°42' W 083°48'  
2015-Aug-21 15:33N 38°48' W 084°11'5 4.7
2015-Aug-21 14:33N 38°52' W 084°14'5 4.9
2015-Aug-21 13:33N 38°57' W 084°17'1 0.9
2015-Aug-21 12:32N 38°57' W 084°18'0 0.0
2015-Aug-21 11:32N 38°57' W 084°18'0 0.0
2015-Aug-21 10:32N 38°57' W 084°18'0 0.0
2015-Aug-21 09:33N 38°57' W 084°18'5 4.5
2015-Aug-21 08:33N 39°02' W 084°20'5 5.2
2015-Aug-21 07:33N 39°04' W 084°26'4 4.1
2015-Aug-21 06:33N 39°07' W 084°29'4 3.9
2015-Aug-21 05:33N 39°05' W 084°34'2 2.3
2015-Aug-21 04:33N 39°04' W 084°36'5 5.4
2015-Aug-21 03:33N 39°07' W 084°42'4 4.0
2015-Aug-21 02:33N 39°07' W 084°47'6 5.4
2015-Aug-21 01:28N 39°03' W 084°54'7 5.2
2015-Aug-21 00:10N 38°57' W 084°51'  

Dump ship's entire track history